Time;durP1;ratioP1;P1;durP2;ratioP2;P2;SDS_P1;SDS_P2;PMS_P1;PMS_P2;Temp;Humidity;BMP_temperature;BMP_pressure;BME280_temperature;BME280_humidity;BME280_pressure;Samples;Min_cycle;Max_cycle;Signal;HPM_P1;HPM_P2
2022/11/27 00:00:27;;;;;;;;;;;;;;;;;;4985207;28;20277;-75
2022/11/27 00:02:52;;;;;;;;;;;;;;;;;;4995381;28;19905;-74
2022/11/27 00:05:18;;;;;;;;;;;;;;;;;;4994666;28;19997;-79
2022/11/27 00:07:43;;;;;;;;;;;;;;;;;;4989774;28;20008;-78
2022/11/27 00:10:08;;;;;;;;;;;;;;;;;;4992798;28;19969;-79
2022/11/27 00:12:33;;;;;;;;;;;;;;;;;;4991204;28;19941;-79
2022/11/27 00:14:58;;;;;;;;;;;;;;;;;;4993158;28;19910;-79
2022/11/27 00:17:23;;;;;;;;;;;;;;;;;;4992217;28;19917;-78
2022/11/27 00:19:48;;;;;;;;;;;;;;;;;;4992566;28;19932;-80
2022/11/27 00:22:13;;;;;;;;;;;;;;;;;;4989616;28;20431;-84
2022/11/27 00:24:38;;;;;;;;;;;;;;;;;;4991975;28;19917;-76
2022/11/27 00:27:04;;;;;;;;;;;;;;;;;;4991227;28;19910;-76
2022/11/27 00:29:30;;;;;;;;;;;;;;;;;;4991448;28;19917;-74
2022/11/27 00:31:55;;;;;;;;;;;;;;;;;;4991902;28;19921;-75
2022/11/27 00:34:20;;;;;;;;;;;;;;;;;;4994526;28;19944;-75
2022/11/27 00:36:45;;;;;;;;;;;;;;;;;;4994042;28;19958;-75
2022/11/27 00:39:10;;;;;;;;;;;;;;;;;;4992904;28;19969;-74
2022/11/27 00:41:36;;;;;;;;;;;;;;;;;;4991806;28;19925;-74
2022/11/27 00:44:01;;;;;;;;;;;;;;;;;;4990648;28;19921;-76
2022/11/27 00:46:26;;;;;;;;;;;;;;;;;;4993407;28;19976;-75
2022/11/27 00:48:51;;;;;;;;;;;;;;;;;;4992819;28;19960;-75
2022/11/27 00:51:17;;;;;;;;;;;;;;;;;;4992203;28;19910;-76
2022/11/27 00:53:42;;;;;;;;;;;;;;;;;;4995417;28;19913;-75
2022/11/27 00:56:07;;;;;;;;;;;;;;;;;;4982358;28;19926;-75
2022/11/27 00:58:32;;;;;;;;;;;;;;;;;;4992417;28;20312;-73
2022/11/27 01:00:57;;;;;;;;;;;;;;;;;;4986375;28;19906;-75
2022/11/27 01:03:23;;;;;;;;;;;;;;;;;;4986636;28;19917;-75
2022/11/27 01:05:48;;;;;;;;;;;;;;;;;;4993890;28;19905;-75
2022/11/27 01:08:13;;;;;;;;;;;;;;;;;;4997900;28;20071;-74
2022/11/27 01:10:38;;;;;;;;;;;;;;;;;;4991067;28;19964;-75
2022/11/27 01:13:03;;;;;;;;;;;;;;;;;;4988510;28;19968;-75
2022/11/27 01:15:28;;;;;;;;;;;;;;;;;;4992630;28;19945;-72
2022/11/27 01:17:53;;;;;;;;;;;;;;;;;;4991176;28;19921;-73
2022/11/27 01:20:18;;;;;;;;;;;;;;;;;;4992093;28;20384;-78
2022/11/27 01:22:43;;;;;;;;;;;;;;;;;;4985395;28;19913;-77
2022/11/27 01:25:09;;;;;;;;;;;;;;;;;;4988489;28;19916;-76
2022/11/27 01:27:34;;;;;;;;;;;;;;;;;;4986705;28;19913;-79
2022/11/27 01:29:59;;;;;;;;;;;;;;;;;;4991287;28;20026;-78
2022/11/27 01:32:24;;;;;;;;;;;;;;;;;;4981445;28;19933;-78
2022/11/27 01:34:49;;;;;;;;;;;;;;;;;;4992516;28;19990;-74
2022/11/27 01:37:14;;;;;;;;;;;;;;;;;;4987512;28;19918;-74
2022/11/27 01:39:39;;;;;;;;;;;;;;;;;;5002614;28;20112;-73
2022/11/27 01:42:04;;;;;;;;;;;;;;;;;;4995991;28;19972;-74
2022/11/27 01:44:30;;;;;;;;;;;;;;;;;;4997366;28;19913;-73
2022/11/27 01:46:55;;;;;;;;;;;;;;;;;;4994820;28;19976;-74
2022/11/27 01:49:20;;;;;;;;;;;;;;;;;;4995898;28;20069;-75
2022/11/27 01:51:45;;;;;;;;;;;;;;;;;;4994343;28;19928;-74
2022/11/27 01:54:10;;;;;;;;;;;;;;;;;;4995280;28;19933;-71
2022/11/27 01:56:35;;;;;;;;;;;;;;;;;;4994274;28;20289;-78
2022/11/27 01:59:00;;;;;;;;;;;;;;;;;;4988341;28;19918;-77
2022/11/27 02:01:25;;;;;;;;;;;;;;;;;;4990335;28;19964;-77
2022/11/27 02:03:50;;;;;;;;;;;;;;;;;;4990316;28;19932;-77
2022/11/27 02:06:16;;;;;;;;;;;;;;;;;;4992004;28;19917;-77
2022/11/27 02:08:41;;;;;;;;;;;;;;;;;;4993814;28;19968;-78
2022/11/27 02:11:06;;;;;;;;;;;;;;;;;;5004333;28;19945;-73
2022/11/27 02:13:31;;;;;;;;;;;;;;;;;;5001569;28;19917;-72
2022/11/27 02:15:56;;;;;;;;;;;;;;;;;;4993188;28;19925;-73
2022/11/27 02:18:21;;;;;;;;;;;;;;;;;;4995301;28;19925;-72
2022/11/27 02:20:46;;;;;;;;;;;;;;;;;;4992798;28;19909;-71
2022/11/27 02:23:11;;;;;;;;;;;;;;;;;;4993750;28;20344;-72
2022/11/27 02:25:37;;;;;;;;;;;;;;;;;;4994456;28;19917;-72
2022/11/27 02:28:02;;;;;;;;;;;;;;;;;;4991694;28;19918;-71
2022/11/27 02:30:27;;;;;;;;;;;;;;;;;;4993225;28;19996;-72
2022/11/27 02:32:52;;;;;;;;;;;;;;;;;;4995052;28;19957;-70
2022/11/27 02:35:17;;;;;;;;;;;;;;;;;;4994125;28;19914;-71
2022/11/27 02:37:42;;;;;;;;;;;;;;;;;;4980760;28;19936;-71
2022/11/27 02:40:07;;;;;;;;;;;;;;;;;;4994378;28;19917;-71
2022/11/27 02:42:32;;;;;;;;;;;;;;;;;;4999916;28;19906;-71
2022/11/27 02:44:57;;;;;;;;;;;;;;;;;;4997862;28;20326;-72
2022/11/27 02:47:23;;;;;;;;;;;;;;;;;;4993780;28;19910;-77
2022/11/27 02:49:48;;;;;;;;;;;;;;;;;;4990781;28;19909;-74
2022/11/27 02:52:13;;;;;;;;;;;;;;;;;;4992204;28;20027;-82
2022/11/27 02:54:38;;;;;;;;;;;;;;;;;;4994897;28;20285;-82
2022/11/27 02:57:03;;;;;;;;;;;;;;;;;;4991353;28;19917;-83
2022/11/27 02:59:28;;;;;;;;;;;;;;;;;;4987370;28;20016;-82
2022/11/27 03:01:53;;;;;;;;;;;;;;;;;;4992318;28;19918;-83
2022/11/27 03:04:19;;;;;;;;;;;;;;;;;;4993096;28;19997;-83
2022/11/27 03:06:44;;;;;;;;;;;;;;;;;;4992247;28;19916;-77
2022/11/27 03:09:09;;;;;;;;;;;;;;;;;;4993096;28;19917;-78
2022/11/27 03:11:34;;;;;;;;;;;;;;;;;;4989941;28;20004;-77
2022/11/27 03:13:59;;;;;;;;;;;;;;;;;;4998248;28;19940;-77
2022/11/27 03:16:24;;;;;;;;;;;;;;;;;;4997550;28;20046;-76
2022/11/27 03:18:49;;;;;;;;;;;;;;;;;;4994666;28;19936;-77
2022/11/27 03:21:14;;;;;;;;;;;;;;;;;;4991492;28;19909;-77
2022/11/27 03:23:39;;;;;;;;;;;;;;;;;;4990778;28;19964;-77
2022/11/27 03:26:05;;;;;;;;;;;;;;;;;;4983933;28;19914;-74
2022/11/27 03:28:30;;;;;;;;;;;;;;;;;;4989559;28;19969;-71
2022/11/27 03:30:55;;;;;;;;;;;;;;;;;;4988266;28;19920;-71
2022/11/27 03:33:20;;;;;;;;;;;;;;;;;;4984120;28;20076;-73
2022/11/27 03:35:45;;;;;;;;;;;;;;;;;;4994012;28;19917;-71
2022/11/27 03:38:10;;;;;;;;;;;;;;;;;;4990391;28;19918;-71
2022/11/27 03:40:35;;;;;;;;;;;;;;;;;;4978789;28;19918;-71
2022/11/27 03:43:00;;;;;;;;;;;;;;;;;;4993414;28;19909;-72
2022/11/27 03:45:25;;;;;;;;;;;;;;;;;;4993217;28;19914;-73
2022/11/27 03:47:51;;;;;;;;;;;;;;;;;;5000568;28;19910;-72
2022/11/27 03:50:16;;;;;;;;;;;;;;;;;;4990001;28;20362;-72
2022/11/27 03:52:41;;;;;;;;;;;;;;;;;;4991136;28;19945;-73
2022/11/27 03:55:06;;;;;;;;;;;;;;;;;;4993696;28;19916;-73
2022/11/27 03:57:31;;;;;;;;;;;;;;;;;;4992421;28;19925;-74
2022/11/27 03:59:56;;;;;;;;;;;;;;;;;;4992489;28;20048;-74
2022/11/27 04:02:21;;;;;;;;;;;;;;;;;;4986372;28;19910;-74
2022/11/27 04:04:47;;;;;;;;;;;;;;;;;;4993454;28;20001;-79
2022/11/27 04:07:13;;;;;;;;;;;;;;;;;;4992407;28;19910;-76
2022/11/27 04:09:38;;;;;;;;;;;;;;;;;;4993091;28;19936;-80
2022/11/27 04:12:03;;;;;;;;;;;;;;;;;;4989291;28;19917;-79
2022/11/27 04:14:28;;;;;;;;;;;;;;;;;;4990969;28;19916;-80
2022/11/27 04:16:53;;;;;;;;;;;;;;;;;;4992161;28;19914;-80
2022/11/27 04:19:18;;;;;;;;;;;;;;;;;;4999605;28;19925;-78
2022/11/27 04:21:43;;;;;;;;;;;;;;;;;;4991061;28;20361;-75
2022/11/27 04:24:08;;;;;;;;;;;;;;;;;;4993129;28;19993;-76
2022/11/27 04:26:34;;;;;;;;;;;;;;;;;;4987792;28;20009;-74
2022/11/27 04:28:59;;;;;;;;;;;;;;;;;;4991790;28;20008;-74
2022/11/27 04:31:24;;;;;;;;;;;;;;;;;;4987856;28;19999;-75
2022/11/27 04:33:49;;;;;;;;;;;;;;;;;;4992199;28;20399;-74
2022/11/27 04:36:14;;;;;;;;;;;;;;;;;;4990617;28;19910;-74
2022/11/27 04:38:39;;;;;;;;;;;;;;;;;;4992917;28;20325;-84
2022/11/27 04:41:04;;;;;;;;;;;;;;;;;;4986377;28;19920;-74
2022/11/27 04:43:29;;;;;;;;;;;;;;;;;;4992615;28;19914;-74
2022/11/27 04:45:54;;;;;;;;;;;;;;;;;;4992775;28;19964;-74
2022/11/27 04:48:20;;;;;;;;;;;;;;;;;;4991834;28;19914;-74
2022/11/27 04:50:45;;;;;;;;;;;;;;;;;;4995967;28;19968;-73
2022/11/27 04:53:10;;;;;;;;;;;;;;;;;;5008897;28;19913;-74
2022/11/27 04:55:35;;;;;;;;;;;;;;;;;;4993255;28;19971;-74
2022/11/27 04:58:00;;;;;;;;;;;;;;;;;;4993129;28;19921;-73
2022/11/27 05:00:25;;;;;;;;;;;;;;;;;;4990669;28;20324;-73
2022/11/27 05:02:50;;;;;;;;;;;;;;;;;;4990855;28;20399;-72
2022/11/27 05:05:16;;;;;;;;;;;;;;;;;;4990878;28;19917;-71
2022/11/27 05:07:41;;;;;;;;;;;;;;;;;;4991958;28;19916;-71
2022/11/27 05:10:06;;;;;;;;;;;;;;;;;;4991024;28;19917;-71
2022/11/27 05:12:31;;;;;;;;;;;;;;;;;;4993822;28;19936;-71
2022/11/27 05:14:56;;;;;;;;;;;;;;;;;;4997812;28;20313;-72
2022/11/27 05:17:21;;;;;;;;;;;;;;;;;;4995911;28;20012;-70
2022/11/27 05:19:46;;;;;;;;;;;;;;;;;;4996287;28;19909;-72
2022/11/27 05:22:12;;;;;;;;;;;;;;;;;;4997839;28;20088;-71
2022/11/27 05:24:37;;;;;;;;;;;;;;;;;;5001629;28;19961;-73
2022/11/27 05:27:02;;;;;;;;;;;;;;;;;;4993644;28;19956;-74
2022/11/27 05:29:27;;;;;;;;;;;;;;;;;;4989378;28;19918;-73
2022/11/27 05:31:52;;;;;;;;;;;;;;;;;;4991136;28;19909;-74
2022/11/27 05:34:17;;;;;;;;;;;;;;;;;;4995643;28;19909;-71
2022/11/27 05:36:42;;;;;;;;;;;;;;;;;;4994693;28;20059;-74
2022/11/27 05:39:07;;;;;;;;;;;;;;;;;;4995730;28;20004;-74
2022/11/27 05:41:32;;;;;;;;;;;;;;;;;;4989172;28;19933;-74
2022/11/27 05:43:58;;;;;;;;;;;;;;;;;;4996930;28;19916;-77
2022/11/27 05:46:23;;;;;;;;;;;;;;;;;;4995398;28;19932;-73
2022/11/27 05:48:48;;;;;;;;;;;;;;;;;;4995076;28;20016;-74
2022/11/27 05:51:13;;;;;;;;;;;;;;;;;;4993275;28;19918;-75
2022/11/27 05:53:38;;;;;;;;;;;;;;;;;;4996999;28;20234;-72
2022/11/27 05:56:03;;;;;;;;;;;;;;;;;;5005233;28;20329;-83
2022/11/27 05:58:28;;;;;;;;;;;;;;;;;;5001282;28;19964;-86
2022/11/27 06:00:53;;;;;;;;;;;;;;;;;;4997838;28;19997;-87
2022/11/27 06:03:19;;;;;;;;;;;;;;;;;;4992568;28;19917;-85
2022/11/27 06:05:44;;;;;;;;;;;;;;;;;;4996247;28;19917;-82
2022/11/27 06:08:09;;;;;;;;;;;;;;;;;;4995745;28;19917;-84
2022/11/27 06:10:34;;;;;;;;;;;;;;;;;;4993894;28;19919;-76
2022/11/27 06:12:59;;;;;;;;;;;;;;;;;;4996581;28;19948;-72
2022/11/27 06:15:24;;;;;;;;;;;;;;;;;;4995429;28;19918;-72
2022/11/27 06:17:49;;;;;;;;;;;;;;;;;;4994790;28;19918;-72
2022/11/27 06:20:14;;;;;;;;;;;;;;;;;;4992701;28;19909;-72
2022/11/27 06:22:39;;;;;;;;;;;;;;;;;;4989994;28;19917;-73
2022/11/27 06:25:04;;;;;;;;;;;;;;;;;;4990477;28;19910;-73
2022/11/27 06:27:30;;;;;;;;;;;;;;;;;;5000615;28;19932;-72
2022/11/27 06:29:55;;;;;;;;;;;;;;;;;;4995356;28;19956;-72
2022/11/27 06:32:20;;;;;;;;;;;;;;;;;;4992813;28;20376;-74
2022/11/27 06:34:45;;;;;;;;;;;;;;;;;;4989132;28;20361;-73
2022/11/27 06:37:10;;;;;;;;;;;;;;;;;;4992378;28;20380;-74
2022/11/27 06:39:35;;;;;;;;;;;;;;;;;;4994560;28;19909;-74
2022/11/27 06:42:00;;;;;;;;;;;;;;;;;;4993147;28;19909;-72
2022/11/27 06:44:25;;;;;;;;;;;;;;;;;;4997422;28;19910;-72
2022/11/27 06:46:50;;;;;;;;;;;;;;;;;;4989377;28;19920;-73
2022/11/27 06:49:16;;;;;;;;;;;;;;;;;;4992763;28;19910;-84
2022/11/27 06:51:41;;;;;;;;;;;;;;;;;;4998862;28;19914;-85
2022/11/27 06:54:06;;;;;;;;;;;;;;;;;;4999066;28;19910;-84
2022/11/27 06:56:31;;;;;;;;;;;;;;;;;;5002317;28;19914;-83
2022/11/27 06:58:56;;;;;;;;;;;;;;;;;;4993070;28;20186;-84
2022/11/27 07:01:21;;;;;;;;;;;;;;;;;;4996410;28;19913;-84
2022/11/27 07:03:46;;;;;;;;;;;;;;;;;;4993193;28;19977;-84
2022/11/27 07:06:12;;;;;;;;;;;;;;;;;;4995575;28;19910;-73
2022/11/27 07:08:37;;;;;;;;;;;;;;;;;;4994590;28;20365;-70
2022/11/27 07:11:02;;;;;;;;;;;;;;;;;;4988991;28;19921;-72
2022/11/27 07:13:27;;;;;;;;;;;;;;;;;;4985956;28;19910;-70
2022/11/27 07:15:52;;;;;;;;;;;;;;;;;;4993505;28;20273;-70
2022/11/27 07:18:17;;;;;;;;;;;;;;;;;;4994606;28;19914;-69
2022/11/27 07:20:43;;;;;;;;;;;;;;;;;;4993799;28;19912;-69
2022/11/27 07:23:08;;;;;;;;;;;;;;;;;;4994378;28;19909;-71
2022/11/27 07:25:33;;;;;;;;;;;;;;;;;;4994573;28;19906;-75
2022/11/27 07:27:58;;;;;;;;;;;;;;;;;;4992750;28;19909;-73
2022/11/27 07:30:23;;;;;;;;;;;;;;;;;;4995705;28;19913;-74
2022/11/27 07:32:48;;;;;;;;;;;;;;;;;;4988301;28;20285;-72
2022/11/27 07:35:13;;;;;;;;;;;;;;;;;;4993258;28;19960;-73
2022/11/27 07:37:38;;;;;;;;;;;;;;;;;;4993448;28;19949;-72
2022/11/27 07:40:04;;;;;;;;;;;;;;;;;;4986556;28;19953;-73
2022/11/27 07:42:29;;;;;;;;;;;;;;;;;;4983661;28;19914;-70
2022/11/27 07:44:54;;;;;;;;;;;;;;;;;;5001745;28;20349;-83
2022/11/27 07:47:19;;;;;;;;;;;;;;;;;;4994240;28;19913;-85
2022/11/27 07:49:44;;;;;;;;;;;;;;;;;;4995269;28;19989;-85
2022/11/27 07:52:09;;;;;;;;;;;;;;;;;;4994361;28;19905;-82
2022/11/27 07:54:35;;;;;;;;;;;;;;;;;;4989383;28;19910;-84
2022/11/27 07:57:00;;;;;;;;;;;;;;;;;;4991675;28;20388;-87
2022/11/27 07:59:25;;;;;;;;;;;;;;;;;;4992048;28;19914;-85
2022/11/27 08:01:50;;;;;;;;;;;;;;;;;;4995771;28;19948;-72
2022/11/27 08:04:15;;;;;;;;;;;;;;;;;;4991583;28;19972;-75
2022/11/27 08:06:40;;;;;;;;;;;;;;;;;;4991894;28;20400;-75
2022/11/27 08:09:05;;;;;;;;;;;;;;;;;;4992673;28;19928;-75
2022/11/27 08:11:31;;;;;;;;;;;;;;;;;;4994003;28;19905;-75
2022/11/27 08:13:56;;;;;;;;;;;;;;;;;;4994787;28;19909;-75
2022/11/27 08:16:22;;;;;;;;;;;;;;;;;;4993403;28;19977;-75
2022/11/27 08:18:47;;;;;;;;;;;;;;;;;;4989194;28;19964;-74
2022/11/27 08:21:12;;;;;;;;;;;;;;;;;;4992890;28;19917;-78
2022/11/27 08:23:37;;;;;;;;;;;;;;;;;;4992048;28;20016;-78
2022/11/27 08:26:02;;;;;;;;;;;;;;;;;;4993574;28;19973;-79
2022/11/27 08:28:27;;;;;;;;;;;;;;;;;;4988611;28;20008;-79
2022/11/27 08:30:53;;;;;;;;;;;;;;;;;;4991626;28;19920;-79
2022/11/27 08:33:18;;;;;;;;;;;;;;;;;;4993271;28;19914;-79
2022/11/27 08:35:43;;;;;;;;;;;;;;;;;;4998968;28;20051;-78
2022/11/27 08:38:08;;;;;;;;;;;;;;;;;;4991739;28;20012;-70
2022/11/27 08:40:33;;;;;;;;;;;;;;;;;;4980061;28;20004;-71
2022/11/27 08:42:58;;;;;;;;;;;;;;;;;;4996176;28;19966;-70
2022/11/27 08:45:23;;;;;;;;;;;;;;;;;;5000880;28;20373;-71
2022/11/27 08:47:48;;;;;;;;;;;;;;;;;;4983821;28;19916;-70
2022/11/27 08:50:14;;;;;;;;;;;;;;;;;;4991700;28;19905;-72
2022/11/27 08:52:39;;;;;;;;;;;;;;;;;;4990812;28;20354;-69
2022/11/27 08:55:04;;;;;;;;;;;;;;;;;;4992538;28;20308;-70
2022/11/27 08:57:29;;;;;;;;;;;;;;;;;;4984431;28;20330;-70
2022/11/27 08:59:54;;;;;;;;;;;;;;;;;;4992643;28;19912;-74
2022/11/27 09:02:19;;;;;;;;;;;;;;;;;;4990618;28;19952;-74
2022/11/27 09:04:44;;;;;;;;;;;;;;;;;;4987387;28;19916;-75
2022/11/27 09:07:12;;;;;;;;;;;;;;;;;;4996803;28;19925;-75
2022/11/27 09:09:38;;;;;;;;;;;;;;;;;;4986256;28;20588;-74
2022/11/27 09:12:03;;;;;;;;;;;;;;;;;;4989679;28;20384;-76
2022/11/27 09:14:28;;;;;;;;;;;;;;;;;;4994077;28;19960;-78
2022/11/27 09:16:53;;;;;;;;;;;;;;;;;;4990798;28;19918;-71
2022/11/27 09:19:20;;;;;;;;;;;;;;;;;;4991874;28;19934;-85
2022/11/27 09:21:45;;;;;;;;;;;;;;;;;;4991115;28;19921;-84
2022/11/27 09:24:10;;;;;;;;;;;;;;;;;;4993460;28;19917;-86
2022/11/27 09:26:35;;;;;;;;;;;;;;;;;;4991754;28;19913;-85
2022/11/27 09:29:01;;;;;;;;;;;;;;;;;;4992035;28;20125;-86
2022/11/27 09:31:26;;;;;;;;;;;;;;;;;;4997550;28;20012;-86
2022/11/27 09:33:51;;;;;;;;;;;;;;;;;;4991006;28;19914;-72
2022/11/27 09:36:16;;;;;;;;;;;;;;;;;;4992982;28;19914;-76
2022/11/27 09:38:41;;;;;;;;;;;;;;;;;;4998304;28;19921;-75
2022/11/27 09:41:07;;;;;;;;;;;;;;;;;;4989209;28;19910;-75
2022/11/27 09:43:32;;;;;;;;;;;;;;;;;;5000315;28;20268;-76
2022/11/27 09:45:57;;;;;;;;;;;;;;;;;;4996141;28;19988;-76
2022/11/27 09:48:23;;;;;;;;;;;;;;;;;;4983399;28;20004;-75
2022/11/27 09:50:49;;;;;;;;;;;;;;;;;;4987383;28;19960;-88
2022/11/27 09:53:14;;;;;;;;;;;;;;;;;;4992885;28;20367;-75
2022/11/27 09:55:41;;;;;;;;;;;;;;;;;;4990682;28;20396;-73
2022/11/27 09:58:09;;;;;;;;;;;;;;;;;;4984132;28;19917;-74
2022/11/27 10:00:34;;;;;;;;;;;;;;;;;;4993387;28;19910;-72
2022/11/27 10:02:59;;;;;;;;;;;;;;;;;;4993267;28;19956;-72
2022/11/27 10:05:24;;;;;;;;;;;;;;;;;;4996298;28;20330;-73
2022/11/27 10:07:49;;;;;;;;;;;;;;;;;;4995572;28;19956;-71
2022/11/27 10:10:14;;;;;;;;;;;;;;;;;;4995662;28;19926;-74
2022/11/27 10:12:39;;;;;;;;;;;;;;;;;;4995986;28;19963;-74
2022/11/27 10:15:04;;;;;;;;;;;;;;;;;;4996474;28;19909;-74
2022/11/27 10:17:30;;;;;;;;;;;;;;;;;;4994033;28;20052;-72
2022/11/27 10:19:55;;;;;;;;;;;;;;;;;;4996015;28;19944;-73
2022/11/27 10:22:20;;;;;;;;;;;;;;;;;;4994949;28;19980;-73
2022/11/27 10:24:45;;;;;;;;;;;;;;;;;;4993844;28;19909;-73
2022/11/27 10:27:10;;;;;;;;;;;;;;;;;;4988684;28;19949;-73
2022/11/27 10:29:35;;;;;;;;;;;;;;;;;;4994126;28;19910;-69
2022/11/27 10:32:00;;;;;;;;;;;;;;;;;;4995618;28;19956;-74
2022/11/27 10:34:25;;;;;;;;;;;;;;;;;;4995623;28;19906;-72
2022/11/27 10:36:51;;;;;;;;;;;;;;;;;;4995310;28;19921;-71
2022/11/27 10:39:16;;;;;;;;;;;;;;;;;;4994517;28;19910;-71
2022/11/27 10:41:41;;;;;;;;;;;;;;;;;;4987615;28;19940;-72
2022/11/27 10:44:06;;;;;;;;;;;;;;;;;;5008509;28;19909;-73
2022/11/27 10:46:31;;;;;;;;;;;;;;;;;;4992237;28;19975;-74
2022/11/27 10:48:56;;;;;;;;;;;;;;;;;;4987806;28;20351;-73
2022/11/27 10:51:21;;;;;;;;;;;;;;;;;;4995338;28;19917;-81
2022/11/27 10:53:47;;;;;;;;;;;;;;;;;;4995641;28;19906;-81
2022/11/27 10:56:14;;;;;;;;;;;;;;;;;;4992845;28;19940;-80
2022/11/27 10:58:39;;;;;;;;;;;;;;;;;;4987546;28;19917;-82
2022/11/27 11:01:05;;;;;;;;;;;;;;;;;;4994125;28;19917;-81
2022/11/27 11:03:30;;;;;;;;;;;;;;;;;;4995273;28;20470;-80
2022/11/27 11:05:55;;;;;;;;;;;;;;;;;;5000223;28;19945;-70
2022/11/27 11:08:21;;;;;;;;;;;;;;;;;;4994117;28;19926;-75
2022/11/27 11:10:46;;;;;;;;;;;;;;;;;;4989320;28;19914;-74
2022/11/27 11:13:11;;;;;;;;;;;;;;;;;;4992150;28;19913;-74
2022/11/27 11:15:36;;;;;;;;;;;;;;;;;;5001017;28;19909;-74
2022/11/27 11:18:01;;;;;;;;;;;;;;;;;;4995009;28;19945;-74
2022/11/27 11:20:26;;;;;;;;;;;;;;;;;;4990889;28;19910;-75
2022/11/27 11:22:52;;;;;;;;;;;;;;;;;;4992956;28;20056;-73
2022/11/27 11:25:17;;;;;;;;;;;;;;;;;;4988814;28;19932;-74
2022/11/27 11:27:42;;;;;;;;;;;;;;;;;;4993229;28;20292;-74
2022/11/27 11:30:09;;;;;;;;;;;;;;;;;;4993282;28;19996;-74
2022/11/27 11:32:34;;;;;;;;;;;;;;;;;;4993344;28;19913;-73
2022/11/27 11:34:59;;;;;;;;;;;;;;;;;;4989953;28;19964;-73
2022/11/27 11:37:24;;;;;;;;;;;;;;;;;;4989657;28;19921;-74
2022/11/27 11:39:49;;;;;;;;;;;;;;;;;;4987516;28;19921;-75
2022/11/27 11:42:14;;;;;;;;;;;;;;;;;;4988401;28;19909;-74
2022/11/27 11:44:39;;;;;;;;;;;;;;;;;;4995146;28;19982;-74
2022/11/27 11:47:04;;;;;;;;;;;;;;;;;;4996304;28;19914;-73
2022/11/27 11:49:30;;;;;;;;;;;;;;;;;;4989922;28;19909;-74
2022/11/27 11:51:55;;;;;;;;;;;;;;;;;;4991751;28;19905;-74
2022/11/27 11:54:20;;;;;;;;;;;;;;;;;;4992626;28;19912;-74
2022/11/27 11:56:45;;;;;;;;;;;;;;;;;;4993319;28;19917;-75
2022/11/27 11:59:10;;;;;;;;;;;;;;;;;;4989843;28;19918;-74
2022/11/27 12:01:36;;;;;;;;;;;;;;;;;;4998215;28;19912;-72
2022/11/27 12:04:02;;;;;;;;;;;;;;;;;;5001351;28;19909;-81
2022/11/27 12:06:27;;;;;;;;;;;;;;;;;;4991832;28;19921;-82
2022/11/27 12:08:52;;;;;;;;;;;;;;;;;;4990430;28;19980;-79
2022/11/27 12:11:17;;;;;;;;;;;;;;;;;;4985624;28;19910;-82
2022/11/27 12:13:42;;;;;;;;;;;;;;;;;;4986939;28;19929;-80
2022/11/27 12:16:07;;;;;;;;;;;;;;;;;;4991486;28;19910;-80
2022/11/27 12:18:32;;;;;;;;;;;;;;;;;;5001094;28;19910;-75
2022/11/27 12:20:58;;;;;;;;;;;;;;;;;;4983823;28;20001;-74
2022/11/27 12:23:23;;;;;;;;;;;;;;;;;;4990315;28;19910;-84
2022/11/27 12:25:48;;;;;;;;;;;;;;;;;;4996582;28;20333;-85
2022/11/27 12:28:13;;;;;;;;;;;;;;;;;;5018148;28;20280;-86
2022/11/27 12:30:38;;;;;;;;;;;;;;;;;;4982592;28;20004;-84
2022/11/27 12:33:03;;;;;;;;;;;;;;;;;;4982371;28;20457;-86
2022/11/27 12:35:28;;;;;;;;;;;;;;;;;;4996472;28;20380;-86
2022/11/27 12:37:53;;;;;;;;;;;;;;;;;;4991169;28;20396;-73
2022/11/27 12:40:19;;;;;;;;;;;;;;;;;;4987408;28;19921;-74
2022/11/27 12:42:44;;;;;;;;;;;;;;;;;;4983580;28;19956;-74
2022/11/27 12:45:09;;;;;;;;;;;;;;;;;;5003364;28;19909;-73
2022/11/27 12:47:34;;;;;;;;;;;;;;;;;;4991386;28;20288;-74
2022/11/27 12:49:59;;;;;;;;;;;;;;;;;;4996146;28;19914;-74
2022/11/27 12:52:25;;;;;;;;;;;;;;;;;;4995309;28;19909;-73
2022/11/27 12:54:50;;;;;;;;;;;;;;;;;;4987338;28;19993;-86
2022/11/27 12:57:15;;;;;;;;;;;;;;;;;;4990643;28;19922;-74
2022/11/27 12:59:42;;;;;;;;;;;;;;;;;;4987730;28;20373;-85
2022/11/27 13:02:07;;;;;;;;;;;;;;;;;;4989673;28;20280;-85
2022/11/27 13:04:32;;;;;;;;;;;;;;;;;;4992168;28;20273;-86
2022/11/27 13:06:57;;;;;;;;;;;;;;;;;;4992651;28;20378;-85
2022/11/27 13:09:22;;;;;;;;;;;;;;;;;;4990244;28;20274;-85
2022/11/27 13:11:47;;;;;;;;;;;;;;;;;;4988637;28;19909;-85
2022/11/27 13:14:13;;;;;;;;;;;;;;;;;;4993576;28;20305;-72
2022/11/27 13:16:39;;;;;;;;;;;;;;;;;;4991289;28;20384;-72
2022/11/27 13:19:05;;;;;;;;;;;;;;;;;;4987762;28;20472;-72
2022/11/27 13:21:30;;;;;;;;;;;;;;;;;;4985201;28;20219;-72
2022/11/27 13:23:55;;;;;;;;;;;;;;;;;;4996163;28;20419;-72
2022/11/27 13:26:20;;;;;;;;;;;;;;;;;;4992745;28;20308;-71
2022/11/27 13:28:45;;;;;;;;;;;;;;;;;;4992669;28;20246;-72
2022/11/27 13:31:10;;;;;;;;;;;;;;;;;;4986868;28;19926;-72
2022/11/27 13:33:35;;;;;;;;;;;;;;;;;;4993431;28;20008;-83
2022/11/27 13:36:02;;;;;;;;;;;;;;;;;;4996449;28;20464;-79
2022/11/27 13:38:27;;;;;;;;;;;;;;;;;;4995651;28;19914;-81
2022/11/27 13:40:52;;;;;;;;;;;;;;;;;;4985732;28;19913;-80
2022/11/27 13:43:17;;;;;;;;;;;;;;;;;;4982427;28;19914;-79
2022/11/27 13:45:42;;;;;;;;;;;;;;;;;;4996578;28;19952;-80
2022/11/27 13:48:07;;;;;;;;;;;;;;;;;;4990360;28;20325;-81
2022/11/27 13:50:33;;;;;;;;;;;;;;;;;;4987379;28;19913;-74
2022/11/27 13:53:04;;;;;;;;;;;;;;;;;;4996798;28;19902;-84
2022/11/27 13:55:29;;;;;;;;;;;;;;;;;;5001788;28;19909;-73
2022/11/27 13:57:58;;;;;;;;;;;;;;;;;;4991614;28;19917;-73
2022/11/27 14:00:23;;;;;;;;;;;;;;;;;;4995032;28;20052;-72
2022/11/27 14:02:48;;;;;;;;;;;;;;;;;;4995958;28;19913;-73
2022/11/27 14:05:13;;;;;;;;;;;;;;;;;;4994637;28;19952;-76
2022/11/27 14:07:40;;;;;;;;;;;;;;;;;;4993145;28;19914;-74
2022/11/27 14:10:05;;;;;;;;;;;;;;;;;;4985328;28;19918;-69
2022/11/27 14:12:30;;;;;;;;;;;;;;;;;;4994250;28;19956;-70
2022/11/27 14:14:55;;;;;;;;;;;;;;;;;;4997981;28;19939;-68
2022/11/27 14:17:20;;;;;;;;;;;;;;;;;;4995882;28;20411;-70
2022/11/27 14:19:45;;;;;;;;;;;;;;;;;;4987752;28;19913;-69
2022/11/27 14:22:10;;;;;;;;;;;;;;;;;;4995037;28;19915;-69
2022/11/27 14:24:39;;;;;;;;;;;;;;;;;;4996356;28;20005;-69
2022/11/27 14:27:04;;;;;;;;;;;;;;;;;;5000229;28;19917;-70
2022/11/27 14:29:29;;;;;;;;;;;;;;;;;;4986221;28;19913;-74
2022/11/27 14:31:54;;;;;;;;;;;;;;;;;;4986996;28;19910;-74
2022/11/27 14:34:20;;;;;;;;;;;;;;;;;;4992855;28;19912;-74
2022/11/27 14:36:45;;;;;;;;;;;;;;;;;;4994248;28;20357;-75
2022/11/27 14:39:10;;;;;;;;;;;;;;;;;;4983987;28;19960;-75
2022/11/27 14:41:35;;;;;;;;;;;;;;;;;;4993131;28;19949;-73
2022/11/27 14:44:00;;;;;;;;;;;;;;;;;;5000746;28;19905;-74
2022/11/27 14:46:25;;;;;;;;;;;;;;;;;;4995512;28;19952;-71
2022/11/27 14:48:54;;;;;;;;;;;;;;;;;;4991298;28;20271;-73
2022/11/27 14:51:19;;;;;;;;;;;;;;;;;;4995146;28;19905;-73
2022/11/27 14:53:44;;;;;;;;;;;;;;;;;;4991687;28;20349;-74
2022/11/27 14:56:09;;;;;;;;;;;;;;;;;;4989457;28;19910;-73
2022/11/27 14:58:34;;;;;;;;;;;;;;;;;;5001611;28;19921;-74
2022/11/27 15:01:00;;;;;;;;;;;;;;;;;;5009853;28;19910;-73
2022/11/27 15:03:25;;;;;;;;;;;;;;;;;;4994963;28;20000;-73
2022/11/27 15:05:50;;;;;;;;;;;;;;;;;;4994202;28;19910;-74
2022/11/27 15:08:15;;;;;;;;;;;;;;;;;;4994300;28;20288;-86
2022/11/27 15:10:40;;;;;;;;;;;;;;;;;;5009678;28;20379;-84
2022/11/27 15:13:06;;;;;;;;;;;;;;;;;;5007423;28;19913;-85
2022/11/27 15:15:33;;;;;;;;;;;;;;;;;;5000378;28;19925;-83
2022/11/27 15:17:58;;;;;;;;;;;;;;;;;;5017550;28;19930;-84
2022/11/27 15:20:23;;;;;;;;;;;;;;;;;;4990349;28;19958;-84
2022/11/27 15:22:48;;;;;;;;;;;;;;;;;;4991842;28;19972;-73
2022/11/27 15:25:13;;;;;;;;;;;;;;;;;;4995447;28;19906;-70
2022/11/27 15:27:39;;;;;;;;;;;;;;;;;;4994549;28;19928;-70
2022/11/27 15:30:04;;;;;;;;;;;;;;;;;;4996342;28;19906;-68
2022/11/27 15:32:29;;;;;;;;;;;;;;;;;;4993163;28;19936;-69
2022/11/27 15:34:54;;;;;;;;;;;;;;;;;;4993917;28;20008;-70
2022/11/27 15:37:19;;;;;;;;;;;;;;;;;;4993004;28;20012;-69
2022/11/27 15:39:44;;;;;;;;;;;;;;;;;;4977712;28;19925;-69
2022/11/27 15:42:09;;;;;;;;;;;;;;;;;;4987990;28;19906;-78
2022/11/27 15:44:35;;;;;;;;;;;;;;;;;;5005151;28;20356;-84
2022/11/27 15:47:00;;;;;;;;;;;;;;;;;;4994425;28;19905;-84
2022/11/27 15:49:25;;;;;;;;;;;;;;;;;;4990484;28;19921;-83
2022/11/27 15:51:50;;;;;;;;;;;;;;;;;;4994787;28;19920;-84
2022/11/27 15:54:15;;;;;;;;;;;;;;;;;;4994400;28;19947;-84
2022/11/27 15:56:41;;;;;;;;;;;;;;;;;;4993989;28;19910;-84
2022/11/27 15:59:06;;;;;;;;;;;;;;;;;;4992237;28;19925;-74
2022/11/27 16:01:31;;;;;;;;;;;;;;;;;;4985409;28;19993;-74
2022/11/27 16:03:56;;;;;;;;;;;;;;;;;;4987185;28;19909;-74
2022/11/27 16:06:23;;;;;;;;;;;;;;;;;;4993027;28;19917;-74
2022/11/27 16:08:48;;;;;;;;;;;;;;;;;;4993462;28;19918;-74
2022/11/27 16:11:18;;;;;;;;;;;;;;;;;;4988060;28;19909;-73
2022/11/27 16:13:43;;;;;;;;;;;;;;;;;;4994481;28;20004;-74
2022/11/27 16:16:08;;;;;;;;;;;;;;;;;;4982825;28;20130;-74
2022/11/27 16:18:33;;;;;;;;;;;;;;;;;;4991743;28;20431;-75
2022/11/27 16:20:58;;;;;;;;;;;;;;;;;;4987994;28;19960;-74
2022/11/27 16:23:23;;;;;;;;;;;;;;;;;;4994078;28;19921;-75
2022/11/27 16:25:49;;;;;;;;;;;;;;;;;;4990795;28;19917;-76
2022/11/27 16:28:14;;;;;;;;;;;;;;;;;;4984650;28;19906;-75
2022/11/27 16:30:39;;;;;;;;;;;;;;;;;;4986997;28;19910;-76